sensor_id;sensor_type;location;lat;lon;timestamp;temperature;humidity
10468;DHT22;5281;48.878;9.394;2023-04-29T00:00:25;13.20;99.90
10468;DHT22;5281;48.878;9.394;2023-04-29T00:02:53;13.20;99.90
10468;DHT22;5281;48.878;9.394;2023-04-29T00:05:20;13.20;99.90
10468;DHT22;5281;48.878;9.394;2023-04-29T00:07:47;13.20;99.90
10468;DHT22;5281;48.878;9.394;2023-04-29T00:10:14;13.20;99.90
10468;DHT22;5281;48.878;9.394;2023-04-29T00:12:41;13.10;99.90
10468;DHT22;5281;48.878;9.394;2023-04-29T00:15:08;13.10;99.90
10468;DHT22;5281;48.878;9.394;2023-04-29T00:17:35;13.10;99.90
10468;DHT22;5281;48.878;9.394;2023-04-29T00:20:04;13.00;99.90
10468;DHT22;5281;48.878;9.394;2023-04-29T00:22:32;13.00;99.90
10468;DHT22;5281;48.878;9.394;2023-04-29T00:24:59;13.00;99.90
10468;DHT22;5281;48.878;9.394;2023-04-29T00:27:26;12.90;99.90
10468;DHT22;5281;48.878;9.394;2023-04-29T00:29:53;13.00;99.90
10468;DHT22;5281;48.878;9.394;2023-04-29T00:32:20;12.90;99.90
10468;DHT22;5281;48.878;9.394;2023-04-29T00:34:47;12.90;99.90
10468;DHT22;5281;48.878;9.394;2023-04-29T00:37:15;12.90;99.90
10468;DHT22;5281;48.878;9.394;2023-04-29T00:39:42;13.00;99.90
10468;DHT22;5281;48.878;9.394;2023-04-29T00:42:09;13.00;99.90
10468;DHT22;5281;48.878;9.394;2023-04-29T00:44:36;13.00;99.90
10468;DHT22;5281;48.878;9.394;2023-04-29T00:47:03;13.10;99.90
10468;DHT22;5281;48.878;9.394;2023-04-29T00:49:30;13.10;99.90
10468;DHT22;5281;48.878;9.394;2023-04-29T00:51:58;13.10;99.90
10468;DHT22;5281;48.878;9.394;2023-04-29T00:54:27;13.10;99.90
10468;DHT22;5281;48.878;9.394;2023-04-29T00:56:55;13.10;99.90
10468;DHT22;5281;48.878;9.394;2023-04-29T00:59:23;13.00;99.90
10468;DHT22;5281;48.878;9.394;2023-04-29T01:01:57;12.90;99.90
10468;DHT22;5281;48.878;9.394;2023-04-29T01:04:24;12.80;99.90
10468;DHT22;5281;48.878;9.394;2023-04-29T01:06:57;12.80;99.90
10468;DHT22;5281;48.878;9.394;2023-04-29T01:09:42;12.80;99.90
10468;DHT22;5281;48.878;9.394;2023-04-29T01:12:19;12.80;99.90
10468;DHT22;5281;48.878;9.394;2023-04-29T01:14:53;12.80;99.90
10468;DHT22;5281;48.878;9.394;2023-04-29T01:17:24;12.80;99.90
10468;DHT22;5281;48.878;9.394;2023-04-29T01:19:53;12.80;99.90
10468;DHT22;5281;48.878;9.394;2023-04-29T01:22:21;12.70;99.90
10468;DHT22;5281;48.878;9.394;2023-04-29T01:24:50;12.70;99.90
10468;DHT22;5281;48.878;9.394;2023-04-29T01:27:27;12.70;99.90
10468;DHT22;5281;48.878;9.394;2023-04-29T01:30:00;12.70;99.90
10468;DHT22;5281;48.878;9.394;2023-04-29T01:32:38;12.60;99.90
10468;DHT22;5281;48.878;9.394;2023-04-29T01:35:14;12.60;99.90
10468;DHT22;5281;48.878;9.394;2023-04-29T01:37:48;12.60;99.90
10468;DHT22;5281;48.878;9.394;2023-04-29T01:40:21;12.50;99.90
10468;DHT22;5281;48.878;9.394;2023-04-29T01:42:58;12.50;99.90
10468;DHT22;5281;48.878;9.394;2023-04-29T01:45:26;12.40;99.90
10468;DHT22;5281;48.878;9.394;2023-04-29T01:47:54;12.40;99.90
10468;DHT22;5281;48.878;9.394;2023-04-29T01:50:22;12.30;99.90
10468;DHT22;5281;48.878;9.394;2023-04-29T01:52:49;12.30;99.90
10468;DHT22;5281;48.878;9.394;2023-04-29T01:55:17;12.30;99.90
10468;DHT22;5281;48.878;9.394;2023-04-29T01:57:44;12.30;99.90
10468;DHT22;5281;48.878;9.394;2023-04-29T02:00:11;12.30;99.90
10468;DHT22;5281;48.878;9.394;2023-04-29T02:02:38;12.30;99.90
10468;DHT22;5281;48.878;9.394;2023-04-29T02:05:05;12.20;99.90
10468;DHT22;5281;48.878;9.394;2023-04-29T02:07:32;12.20;99.90
10468;DHT22;5281;48.878;9.394;2023-04-29T02:09:59;12.20;99.90
10468;DHT22;5281;48.878;9.394;2023-04-29T02:12:27;12.10;99.90
10468;DHT22;5281;48.878;9.394;2023-04-29T02:14:54;12.10;99.90
10468;DHT22;5281;48.878;9.394;2023-04-29T02:17:21;12.10;99.90
10468;DHT22;5281;48.878;9.394;2023-04-29T02:19:48;12.00;99.90
10468;DHT22;5281;48.878;9.394;2023-04-29T02:22:15;12.00;99.90
10468;DHT22;5281;48.878;9.394;2023-04-29T02:24:41;11.90;99.90
10468;DHT22;5281;48.878;9.394;2023-04-29T02:27:08;11.80;99.90
10468;DHT22;5281;48.878;9.394;2023-04-29T02:29:37;11.80;99.90
10468;DHT22;5281;48.878;9.394;2023-04-29T02:32:04;11.70;99.90
10468;DHT22;5281;48.878;9.394;2023-04-29T02:34:31;11.60;99.90
10468;DHT22;5281;48.878;9.394;2023-04-29T02:36:58;11.60;99.90
10468;DHT22;5281;48.878;9.394;2023-04-29T02:39:24;11.60;99.90
10468;DHT22;5281;48.878;9.394;2023-04-29T02:41:53;11.60;99.90
10468;DHT22;5281;48.878;9.394;2023-04-29T02:44:20;11.50;99.90
10468;DHT22;5281;48.878;9.394;2023-04-29T02:46:48;11.60;99.90
10468;DHT22;5281;48.878;9.394;2023-04-29T02:49:15;11.60;99.90
10468;DHT22;5281;48.878;9.394;2023-04-29T02:51:42;11.60;99.90
10468;DHT22;5281;48.878;9.394;2023-04-29T02:54:09;11.60;99.90
10468;DHT22;5281;48.878;9.394;2023-04-29T02:56:36;11.60;99.90
10468;DHT22;5281;48.878;9.394;2023-04-29T02:59:02;11.70;99.90
10468;DHT22;5281;48.878;9.394;2023-04-29T03:01:29;11.70;99.90
10468;DHT22;5281;48.878;9.394;2023-04-29T03:03:58;11.60;99.90
10468;DHT22;5281;48.878;9.394;2023-04-29T03:06:25;11.60;99.90
10468;DHT22;5281;48.878;9.394;2023-04-29T03:08:52;11.60;99.90
10468;DHT22;5281;48.878;9.394;2023-04-29T03:11:19;11.50;99.90
10468;DHT22;5281;48.878;9.394;2023-04-29T03:13:49;11.40;99.90
10468;DHT22;5281;48.878;9.394;2023-04-29T03:16:15;11.30;99.90
10468;DHT22;5281;48.878;9.394;2023-04-29T03:18:42;11.30;99.90
10468;DHT22;5281;48.878;9.394;2023-04-29T03:21:11;11.30;99.90
10468;DHT22;5281;48.878;9.394;2023-04-29T03:23:37;11.30;99.90
10468;DHT22;5281;48.878;9.394;2023-04-29T03:26:05;11.30;99.90
10468;DHT22;5281;48.878;9.394;2023-04-29T03:28:32;11.30;99.90
10468;DHT22;5281;48.878;9.394;2023-04-29T03:30:59;11.30;99.90
10468;DHT22;5281;48.878;9.394;2023-04-29T03:33:26;11.20;99.90
10468;DHT22;5281;48.878;9.394;2023-04-29T03:35:53;11.20;99.90
10468;DHT22;5281;48.878;9.394;2023-04-29T03:38:21;11.20;99.90
10468;DHT22;5281;48.878;9.394;2023-04-29T03:40:50;11.20;99.90
10468;DHT22;5281;48.878;9.394;2023-04-29T03:43:17;11.20;99.90
10468;DHT22;5281;48.878;9.394;2023-04-29T03:45:44;11.20;99.90
10468;DHT22;5281;48.878;9.394;2023-04-29T03:48:11;11.20;99.90
10468;DHT22;5281;48.878;9.394;2023-04-29T03:50:39;11.20;99.90
10468;DHT22;5281;48.878;9.394;2023-04-29T03:53:06;11.20;99.90
10468;DHT22;5281;48.878;9.394;2023-04-29T03:55:34;11.10;99.90
10468;DHT22;5281;48.878;9.394;2023-04-29T03:58:01;11.10;99.90
10468;DHT22;5281;48.878;9.394;2023-04-29T04:00:29;11.10;99.90
10468;DHT22;5281;48.878;9.394;2023-04-29T04:02:56;11.10;99.90
10468;DHT22;5281;48.878;9.394;2023-04-29T04:05:23;11.10;99.90
10468;DHT22;5281;48.878;9.394;2023-04-29T04:07:51;11.00;99.90
10468;DHT22;5281;48.878;9.394;2023-04-29T04:10:18;11.00;99.90
10468;DHT22;5281;48.878;9.394;2023-04-29T04:12:46;11.00;99.90
10468;DHT22;5281;48.878;9.394;2023-04-29T04:15:13;11.00;99.90
10468;DHT22;5281;48.878;9.394;2023-04-29T04:17:39;11.10;99.90
10468;DHT22;5281;48.878;9.394;2023-04-29T04:20:07;11.30;99.90
10468;DHT22;5281;48.878;9.394;2023-04-29T04:22:34;11.40;99.90
10468;DHT22;5281;48.878;9.394;2023-04-29T04:25:02;11.60;99.90
10468;DHT22;5281;48.878;9.394;2023-04-29T04:27:29;11.70;99.90
10468;DHT22;5281;48.878;9.394;2023-04-29T04:29:58;11.80;99.90
10468;DHT22;5281;48.878;9.394;2023-04-29T04:32:25;11.90;99.90
10468;DHT22;5281;48.878;9.394;2023-04-29T04:34:52;12.00;99.90
10468;DHT22;5281;48.878;9.394;2023-04-29T04:37:19;11.90;99.90
10468;DHT22;5281;48.878;9.394;2023-04-29T04:39:47;11.90;99.90
10468;DHT22;5281;48.878;9.394;2023-04-29T04:42:14;11.90;99.90
10468;DHT22;5281;48.878;9.394;2023-04-29T04:44:40;11.90;99.90
10468;DHT22;5281;48.878;9.394;2023-04-29T04:47:09;11.90;99.90
10468;DHT22;5281;48.878;9.394;2023-04-29T04:49:37;11.90;99.90
10468;DHT22;5281;48.878;9.394;2023-04-29T04:52:04;12.00;99.90
10468;DHT22;5281;48.878;9.394;2023-04-29T04:54:31;12.20;99.90
10468;DHT22;5281;48.878;9.394;2023-04-29T04:56:58;12.50;99.90
10468;DHT22;5281;48.878;9.394;2023-04-29T04:59:24;12.60;99.90
10468;DHT22;5281;48.878;9.394;2023-04-29T05:01:51;12.80;99.90
10468;DHT22;5281;48.878;9.394;2023-04-29T05:04:20;12.90;99.90
10468;DHT22;5281;48.878;9.394;2023-04-29T05:06:47;13.10;99.90
10468;DHT22;5281;48.878;9.394;2023-04-29T05:09:13;13.20;99.90
10468;DHT22;5281;48.878;9.394;2023-04-29T05:11:41;13.30;99.90
10468;DHT22;5281;48.878;9.394;2023-04-29T05:14:08;13.40;99.90
10468;DHT22;5281;48.878;9.394;2023-04-29T05:16:34;13.50;99.90
10468;DHT22;5281;48.878;9.394;2023-04-29T05:19:01;13.60;99.90
10468;DHT22;5281;48.878;9.394;2023-04-29T05:21:30;13.80;99.90
10468;DHT22;5281;48.878;9.394;2023-04-29T05:23:57;13.90;99.90
10468;DHT22;5281;48.878;9.394;2023-04-29T05:26:23;13.90;99.90
10468;DHT22;5281;48.878;9.394;2023-04-29T05:28:50;14.00;99.90
10468;DHT22;5281;48.878;9.394;2023-04-29T05:31:17;14.00;99.90
10468;DHT22;5281;48.878;9.394;2023-04-29T05:33:44;14.10;99.90
10468;DHT22;5281;48.878;9.394;2023-04-29T05:36:11;14.10;99.90
10468;DHT22;5281;48.878;9.394;2023-04-29T05:38:39;14.10;99.90
10468;DHT22;5281;48.878;9.394;2023-04-29T05:41:06;14.20;99.90
10468;DHT22;5281;48.878;9.394;2023-04-29T05:43:33;14.30;99.90
10468;DHT22;5281;48.878;9.394;2023-04-29T05:46:00;14.40;99.90
10468;DHT22;5281;48.878;9.394;2023-04-29T05:48:26;14.50;99.90
10468;DHT22;5281;48.878;9.394;2023-04-29T05:50:54;14.60;99.90
10468;DHT22;5281;48.878;9.394;2023-04-29T05:53:21;14.70;99.90
10468;DHT22;5281;48.878;9.394;2023-04-29T05:55:49;14.80;99.90
10468;DHT22;5281;48.878;9.394;2023-04-29T05:58:16;14.90;99.90
10468;DHT22;5281;48.878;9.394;2023-04-29T06:00:43;14.90;99.90
10468;DHT22;5281;48.878;9.394;2023-04-29T06:03:10;15.00;99.90
10468;DHT22;5281;48.878;9.394;2023-04-29T06:05:37;15.10;99.90
10468;DHT22;5281;48.878;9.394;2023-04-29T06:08:04;15.20;99.90
10468;DHT22;5281;48.878;9.394;2023-04-29T06:10:31;15.40;99.90
10468;DHT22;5281;48.878;9.394;2023-04-29T06:12:59;15.60;99.90
10468;DHT22;5281;48.878;9.394;2023-04-29T06:15:26;15.90;99.90
10468;DHT22;5281;48.878;9.394;2023-04-29T06:17:53;17.40;99.90
10468;DHT22;5281;48.878;9.394;2023-04-29T06:20:21;19.40;99.90
10468;DHT22;5281;48.878;9.394;2023-04-29T06:22:47;20.20;99.90
10468;DHT22;5281;48.878;9.394;2023-04-29T06:25:14;20.40;99.90
10468;DHT22;5281;48.878;9.394;2023-04-29T06:27:41;20.40;99.90
10468;DHT22;5281;48.878;9.394;2023-04-29T06:30:10;20.20;99.90
10468;DHT22;5281;48.878;9.394;2023-04-29T06:32:37;20.10;99.90
10468;DHT22;5281;48.878;9.394;2023-04-29T06:35:05;20.10;99.90
10468;DHT22;5281;48.878;9.394;2023-04-29T06:37:32;20.20;99.90
10468;DHT22;5281;48.878;9.394;2023-04-29T06:39:59;20.30;99.90
10468;DHT22;5281;48.878;9.394;2023-04-29T06:42:26;20.30;99.90
10468;DHT22;5281;48.878;9.394;2023-04-29T06:44:52;20.30;99.90
10468;DHT22;5281;48.878;9.394;2023-04-29T06:47:21;20.40;99.90
10468;DHT22;5281;48.878;9.394;2023-04-29T06:49:48;20.40;99.90
10468;DHT22;5281;48.878;9.394;2023-04-29T06:52:15;20.40;99.90
10468;DHT22;5281;48.878;9.394;2023-04-29T06:54:42;20.40;99.90
10468;DHT22;5281;48.878;9.394;2023-04-29T06:57:09;20.30;99.90
10468;DHT22;5281;48.878;9.394;2023-04-29T06:59:36;20.20;99.90
10468;DHT22;5281;48.878;9.394;2023-04-29T07:02:02;20.10;99.90
10468;DHT22;5281;48.878;9.394;2023-04-29T07:04:31;20.70;99.90
10468;DHT22;5281;48.878;9.394;2023-04-29T07:06:57;22.20;99.90
10468;DHT22;5281;48.878;9.394;2023-04-29T07:09:24;24.60;99.90
10468;DHT22;5281;48.878;9.394;2023-04-29T07:11:52;26.20;99.90
10468;DHT22;5281;48.878;9.394;2023-04-29T07:14:19;26.90;99.90
10468;DHT22;5281;48.878;9.394;2023-04-29T07:16:52;26.80;99.90
10468;DHT22;5281;48.878;9.394;2023-04-29T07:19:19;26.10;99.90
10468;DHT22;5281;48.878;9.394;2023-04-29T07:21:47;25.30;99.90
10468;DHT22;5281;48.878;9.394;2023-04-29T07:24:14;24.50;99.90
10468;DHT22;5281;48.878;9.394;2023-04-29T07:26:42;23.80;99.90
10468;DHT22;5281;48.878;9.394;2023-04-29T07:29:09;23.10;99.90
10468;DHT22;5281;48.878;9.394;2023-04-29T07:31:36;22.70;99.90
10468;DHT22;5281;48.878;9.394;2023-04-29T07:34:03;22.60;99.90
10468;DHT22;5281;48.878;9.394;2023-04-29T07:36:30;22.40;99.90
10468;DHT22;5281;48.878;9.394;2023-04-29T07:38:59;22.10;99.90
10468;DHT22;5281;48.878;9.394;2023-04-29T07:41:26;21.80;99.90
10468;DHT22;5281;48.878;9.394;2023-04-29T07:43:53;21.60;99.90
10468;DHT22;5281;48.878;9.394;2023-04-29T07:46:20;21.40;99.90
10468;DHT22;5281;48.878;9.394;2023-04-29T07:48:46;21.20;99.90
10468;DHT22;5281;48.878;9.394;2023-04-29T07:51:14;21.10;99.90
10468;DHT22;5281;48.878;9.394;2023-04-29T07:53:41;21.00;99.90
10468;DHT22;5281;48.878;9.394;2023-04-29T07:56:09;20.80;99.90
10468;DHT22;5281;48.878;9.394;2023-04-29T07:58:36;20.60;99.90
10468;DHT22;5281;48.878;9.394;2023-04-29T08:01:06;20.50;99.90
10468;DHT22;5281;48.878;9.394;2023-04-29T08:03:34;20.50;99.90
10468;DHT22;5281;48.878;9.394;2023-04-29T08:06:02;20.50;99.90
10468;DHT22;5281;48.878;9.394;2023-04-29T08:08:29;20.30;99.90
10468;DHT22;5281;48.878;9.394;2023-04-29T08:10:56;20.10;99.90
10468;DHT22;5281;48.878;9.394;2023-04-29T08:13:24;19.90;99.90
10468;DHT22;5281;48.878;9.394;2023-04-29T08:15:51;19.80;99.90
10468;DHT22;5281;48.878;9.394;2023-04-29T08:18:18;19.80;99.90
10468;DHT22;5281;48.878;9.394;2023-04-29T08:20:47;19.90;99.90
10468;DHT22;5281;48.878;9.394;2023-04-29T08:23:15;19.90;99.90
10468;DHT22;5281;48.878;9.394;2023-04-29T08:25:41;19.90;99.90
10468;DHT22;5281;48.878;9.394;2023-04-29T08:28:09;20.10;99.90
10468;DHT22;5281;48.878;9.394;2023-04-29T08:30:38;20.30;99.90
10468;DHT22;5281;48.878;9.394;2023-04-29T08:33:06;20.00;99.90
10468;DHT22;5281;48.878;9.394;2023-04-29T08:35:33;19.70;99.90
10468;DHT22;5281;48.878;9.394;2023-04-29T08:38:03;19.60;99.90
10468;DHT22;5281;48.878;9.394;2023-04-29T08:40:33;19.80;99.90
10468;DHT22;5281;48.878;9.394;2023-04-29T08:43:00;20.30;99.90
10468;DHT22;5281;48.878;9.394;2023-04-29T08:45:28;20.70;99.90
10468;DHT22;5281;48.878;9.394;2023-04-29T08:47:58;21.00;99.90
10468;DHT22;5281;48.878;9.394;2023-04-29T08:50:27;20.90;99.90
10468;DHT22;5281;48.878;9.394;2023-04-29T08:52:54;20.80;99.90
10468;DHT22;5281;48.878;9.394;2023-04-29T08:55:21;21.10;99.90
10468;DHT22;5281;48.878;9.394;2023-04-29T08:57:49;21.60;99.90
10468;DHT22;5281;48.878;9.394;2023-04-29T09:00:17;22.00;99.90
10468;DHT22;5281;48.878;9.394;2023-04-29T09:02:49;22.20;99.90
10468;DHT22;5281;48.878;9.394;2023-04-29T09:05:17;22.30;99.90
10468;DHT22;5281;48.878;9.394;2023-04-29T09:07:45;22.30;99.90
10468;DHT22;5281;48.878;9.394;2023-04-29T09:10:12;22.10;99.90
10468;DHT22;5281;48.878;9.394;2023-04-29T09:12:39;22.20;99.90
10468;DHT22;5281;48.878;9.394;2023-04-29T09:15:07;22.20;99.90
10468;DHT22;5281;48.878;9.394;2023-04-29T09:17:41;22.10;99.90
10468;DHT22;5281;48.878;9.394;2023-04-29T09:20:28;22.20;99.90
10468;DHT22;5281;48.878;9.394;2023-04-29T09:22:57;22.50;99.90
10468;DHT22;5281;48.878;9.394;2023-04-29T09:25:24;22.50;99.90
10468;DHT22;5281;48.878;9.394;2023-04-29T09:27:52;22.70;99.90
10468;DHT22;5281;48.878;9.394;2023-04-29T09:30:19;22.90;99.90
10468;DHT22;5281;48.878;9.394;2023-04-29T09:33:03;23.10;99.90
10468;DHT22;5281;48.878;9.394;2023-04-29T09:35:32;23.60;99.90
10468;DHT22;5281;48.878;9.394;2023-04-29T09:38:08;23.70;99.90
10468;DHT22;5281;48.878;9.394;2023-04-29T09:40:35;23.30;99.90
10468;DHT22;5281;48.878;9.394;2023-04-29T09:43:02;23.20;99.90
10468;DHT22;5281;48.878;9.394;2023-04-29T09:45:36;23.00;99.90
10468;DHT22;5281;48.878;9.394;2023-04-29T09:48:04;23.00;99.90
10468;DHT22;5281;48.878;9.394;2023-04-29T09:50:33;23.20;99.90
10468;DHT22;5281;48.878;9.394;2023-04-29T09:53:01;23.40;99.90
10468;DHT22;5281;48.878;9.394;2023-04-29T09:55:28;23.20;99.90
10468;DHT22;5281;48.878;9.394;2023-04-29T09:57:56;23.30;99.90
10468;DHT22;5281;48.878;9.394;2023-04-29T10:00:27;23.20;99.90
10468;DHT22;5281;48.878;9.394;2023-04-29T10:02:58;23.00;99.90
10468;DHT22;5281;48.878;9.394;2023-04-29T10:05:27;22.70;99.90
10468;DHT22;5281;48.878;9.394;2023-04-29T10:07:57;22.40;99.90
10468;DHT22;5281;48.878;9.394;2023-04-29T10:10:25;22.10;99.90
10468;DHT22;5281;48.878;9.394;2023-04-29T10:12:54;21.90;99.90
10468;DHT22;5281;48.878;9.394;2023-04-29T10:15:27;21.60;99.90
10468;DHT22;5281;48.878;9.394;2023-04-29T10:17:58;21.60;99.90
10468;DHT22;5281;48.878;9.394;2023-04-29T10:20:29;21.30;99.90
10468;DHT22;5281;48.878;9.394;2023-04-29T10:22:58;21.00;99.90
10468;DHT22;5281;48.878;9.394;2023-04-29T10:25:25;20.60;99.90
10468;DHT22;5281;48.878;9.394;2023-04-29T10:27:54;20.40;99.90
10468;DHT22;5281;48.878;9.394;2023-04-29T10:30:21;20.10;99.90
10468;DHT22;5281;48.878;9.394;2023-04-29T10:32:49;20.10;99.90
10468;DHT22;5281;48.878;9.394;2023-04-29T10:35:17;20.10;99.90
10468;DHT22;5281;48.878;9.394;2023-04-29T10:37:46;20.30;99.90
10468;DHT22;5281;48.878;9.394;2023-04-29T10:40:17;20.80;99.90
10468;DHT22;5281;48.878;9.394;2023-04-29T10:42:47;21.30;99.90
10468;DHT22;5281;48.878;9.394;2023-04-29T10:45:21;21.50;99.90
10468;DHT22;5281;48.878;9.394;2023-04-29T10:48:13;21.40;99.90
10468;DHT22;5281;48.878;9.394;2023-04-29T10:51:01;21.30;99.90
10468;DHT22;5281;48.878;9.394;2023-04-29T10:53:29;21.00;99.90
10468;DHT22;5281;48.878;9.394;2023-04-29T10:56:02;21.00;99.90
10468;DHT22;5281;48.878;9.394;2023-04-29T10:58:40;21.00;99.90
10468;DHT22;5281;48.878;9.394;2023-04-29T11:01:10;21.00;99.90
10468;DHT22;5281;48.878;9.394;2023-04-29T11:03:51;21.10;99.90
10468;DHT22;5281;48.878;9.394;2023-04-29T11:06:23;21.00;99.90
10468;DHT22;5281;48.878;9.394;2023-04-29T11:08:59;21.00;99.90
10468;DHT22;5281;48.878;9.394;2023-04-29T11:11:41;21.20;99.90
10468;DHT22;5281;48.878;9.394;2023-04-29T11:14:08;21.20;99.90
10468;DHT22;5281;48.878;9.394;2023-04-29T11:16:36;21.20;99.90
10468;DHT22;5281;48.878;9.394;2023-04-29T11:19:04;21.50;99.90
10468;DHT22;5281;48.878;9.394;2023-04-29T11:21:33;21.60;99.90
10468;DHT22;5281;48.878;9.394;2023-04-29T11:24:01;21.30;99.90
10468;DHT22;5281;48.878;9.394;2023-04-29T11:26:29;20.90;99.90
10468;DHT22;5281;48.878;9.394;2023-04-29T11:28:57;20.60;99.90
10468;DHT22;5281;48.878;9.394;2023-04-29T11:31:30;20.60;99.90
10468;DHT22;5281;48.878;9.394;2023-04-29T11:33:57;20.80;99.90
10468;DHT22;5281;48.878;9.394;2023-04-29T11:36:24;21.30;99.90
10468;DHT22;5281;48.878;9.394;2023-04-29T11:38:52;21.50;99.90
10468;DHT22;5281;48.878;9.394;2023-04-29T11:41:20;21.50;99.90
10468;DHT22;5281;48.878;9.394;2023-04-29T11:43:54;21.40;99.90
10468;DHT22;5281;48.878;9.394;2023-04-29T11:46:22;21.40;99.90
10468;DHT22;5281;48.878;9.394;2023-04-29T11:48:49;21.00;99.90
10468;DHT22;5281;48.878;9.394;2023-04-29T11:51:17;20.70;99.90
10468;DHT22;5281;48.878;9.394;2023-04-29T11:53:44;20.40;99.90
10468;DHT22;5281;48.878;9.394;2023-04-29T11:56:11;20.10;99.90
10468;DHT22;5281;48.878;9.394;2023-04-29T11:58:40;19.90;99.90
10468;DHT22;5281;48.878;9.394;2023-04-29T12:01:07;19.70;99.90
10468;DHT22;5281;48.878;9.394;2023-04-29T12:03:36;19.60;99.90
10468;DHT22;5281;48.878;9.394;2023-04-29T12:06:03;19.50;99.90
10468;DHT22;5281;48.878;9.394;2023-04-29T12:08:30;19.50;99.90
10468;DHT22;5281;48.878;9.394;2023-04-29T12:10:59;19.70;99.90
10468;DHT22;5281;48.878;9.394;2023-04-29T12:13:28;19.60;99.90
10468;DHT22;5281;48.878;9.394;2023-04-29T12:15:56;19.60;99.90
10468;DHT22;5281;48.878;9.394;2023-04-29T12:18:23;19.60;99.90
10468;DHT22;5281;48.878;9.394;2023-04-29T12:20:53;19.70;99.90
10468;DHT22;5281;48.878;9.394;2023-04-29T12:23:22;19.90;99.90
10468;DHT22;5281;48.878;9.394;2023-04-29T12:25:52;20.30;99.90
10468;DHT22;5281;48.878;9.394;2023-04-29T12:28:19;20.60;99.90
10468;DHT22;5281;48.878;9.394;2023-04-29T12:30:47;20.80;99.90
10468;DHT22;5281;48.878;9.394;2023-04-29T12:33:20;21.00;99.90
10468;DHT22;5281;48.878;9.394;2023-04-29T12:35:48;21.30;99.90
10468;DHT22;5281;48.878;9.394;2023-04-29T12:38:19;21.50;99.90
10468;DHT22;5281;48.878;9.394;2023-04-29T12:40:46;21.50;99.90
10468;DHT22;5281;48.878;9.394;2023-04-29T12:43:13;21.50;99.90
10468;DHT22;5281;48.878;9.394;2023-04-29T12:45:40;21.80;99.90
10468;DHT22;5281;48.878;9.394;2023-04-29T12:48:07;21.80;99.90
10468;DHT22;5281;48.878;9.394;2023-04-29T12:50:36;21.60;99.90
10468;DHT22;5281;48.878;9.394;2023-04-29T12:53:03;21.30;99.90
10468;DHT22;5281;48.878;9.394;2023-04-29T12:55:32;21.20;99.90
10468;DHT22;5281;48.878;9.394;2023-04-29T12:58:00;21.00;99.90
10468;DHT22;5281;48.878;9.394;2023-04-29T13:00:27;20.80;99.90
10468;DHT22;5281;48.878;9.394;2023-04-29T13:02:54;20.70;99.90
10468;DHT22;5281;48.878;9.394;2023-04-29T13:05:21;20.70;99.90
10468;DHT22;5281;48.878;9.394;2023-04-29T13:07:48;20.80;99.90
10468;DHT22;5281;48.878;9.394;2023-04-29T13:10:15;20.60;99.90
10468;DHT22;5281;48.878;9.394;2023-04-29T13:12:43;20.70;99.90
10468;DHT22;5281;48.878;9.394;2023-04-29T13:15:10;20.80;99.90
10468;DHT22;5281;48.878;9.394;2023-04-29T13:17:38;20.60;99.90
10468;DHT22;5281;48.878;9.394;2023-04-29T13:20:06;20.30;99.90
10468;DHT22;5281;48.878;9.394;2023-04-29T13:22:34;20.30;99.90
10468;DHT22;5281;48.878;9.394;2023-04-29T13:25:02;20.50;99.90
10468;DHT22;5281;48.878;9.394;2023-04-29T13:27:29;20.80;99.90
10468;DHT22;5281;48.878;9.394;2023-04-29T13:29:58;21.00;99.90
10468;DHT22;5281;48.878;9.394;2023-04-29T13:32:24;21.00;99.90
10468;DHT22;5281;48.878;9.394;2023-04-29T13:34:52;20.70;99.90
10468;DHT22;5281;48.878;9.394;2023-04-29T13:37:19;20.60;99.90
10468;DHT22;5281;48.878;9.394;2023-04-29T13:39:45;20.40;99.90
10468;DHT22;5281;48.878;9.394;2023-04-29T13:42:12;20.10;99.90
10468;DHT22;5281;48.878;9.394;2023-04-29T13:44:39;19.90;99.90
10468;DHT22;5281;48.878;9.394;2023-04-29T13:47:10;19.90;99.90
10468;DHT22;5281;48.878;9.394;2023-04-29T13:49:38;19.90;99.90
10468;DHT22;5281;48.878;9.394;2023-04-29T13:52:05;20.10;99.90
10468;DHT22;5281;48.878;9.394;2023-04-29T13:54:32;20.10;99.90
10468;DHT22;5281;48.878;9.394;2023-04-29T13:56:59;20.20;99.90
10468;DHT22;5281;48.878;9.394;2023-04-29T13:59:25;20.20;99.90
10468;DHT22;5281;48.878;9.394;2023-04-29T14:01:52;20.00;99.90
10468;DHT22;5281;48.878;9.394;2023-04-29T14:04:20;19.80;99.90
10468;DHT22;5281;48.878;9.394;2023-04-29T14:06:47;19.70;99.90
10468;DHT22;5281;48.878;9.394;2023-04-29T14:09:14;19.70;99.90
10468;DHT22;5281;48.878;9.394;2023-04-29T14:11:41;19.60;99.90
10468;DHT22;5281;48.878;9.394;2023-04-29T14:14:08;19.50;99.90
10468;DHT22;5281;48.878;9.394;2023-04-29T14:16:34;19.50;99.90
10468;DHT22;5281;48.878;9.394;2023-04-29T14:19:01;19.60;99.90
10468;DHT22;5281;48.878;9.394;2023-04-29T14:21:29;19.80;99.90
10468;DHT22;5281;48.878;9.394;2023-04-29T14:23:57;19.90;99.90
10468;DHT22;5281;48.878;9.394;2023-04-29T14:26:24;19.90;99.90
10468;DHT22;5281;48.878;9.394;2023-04-29T14:28:51;20.00;99.90
10468;DHT22;5281;48.878;9.394;2023-04-29T14:31:22;20.10;99.90
10468;DHT22;5281;48.878;9.394;2023-04-29T14:33:48;20.10;99.90
10468;DHT22;5281;48.878;9.394;2023-04-29T14:36:16;20.00;99.90
10468;DHT22;5281;48.878;9.394;2023-04-29T14:38:44;19.90;99.90
10468;DHT22;5281;48.878;9.394;2023-04-29T14:41:10;19.80;99.90
10468;DHT22;5281;48.878;9.394;2023-04-29T14:43:37;19.70;99.90
10468;DHT22;5281;48.878;9.394;2023-04-29T14:46:05;19.70;99.90
10468;DHT22;5281;48.878;9.394;2023-04-29T14:48:32;19.90;99.90
10468;DHT22;5281;48.878;9.394;2023-04-29T14:50:59;19.90;99.90
10468;DHT22;5281;48.878;9.394;2023-04-29T14:53:25;19.90;99.90
10468;DHT22;5281;48.878;9.394;2023-04-29T14:55:53;19.90;99.90
10468;DHT22;5281;48.878;9.394;2023-04-29T14:58:20;19.90;99.90
10468;DHT22;5281;48.878;9.394;2023-04-29T15:00:47;19.80;99.90
10468;DHT22;5281;48.878;9.394;2023-04-29T15:03:15;19.30;99.90
10468;DHT22;5281;48.878;9.394;2023-04-29T15:05:42;18.90;99.90
10468;DHT22;5281;48.878;9.394;2023-04-29T15:08:10;18.70;99.90
10468;DHT22;5281;48.878;9.394;2023-04-29T15:10:37;18.80;99.90
10468;DHT22;5281;48.878;9.394;2023-04-29T15:13:05;18.70;99.90
10468;DHT22;5281;48.878;9.394;2023-04-29T15:15:32;18.80;99.90
10468;DHT22;5281;48.878;9.394;2023-04-29T15:17:59;18.90;99.90
10468;DHT22;5281;48.878;9.394;2023-04-29T15:20:25;18.90;99.90
10468;DHT22;5281;48.878;9.394;2023-04-29T15:22:52;18.90;99.90
10468;DHT22;5281;48.878;9.394;2023-04-29T15:25:19;18.90;99.90
10468;DHT22;5281;48.878;9.394;2023-04-29T15:27:46;19.00;99.90
10468;DHT22;5281;48.878;9.394;2023-04-29T15:30:14;19.20;99.90
10468;DHT22;5281;48.878;9.394;2023-04-29T15:32:41;19.20;99.90
10468;DHT22;5281;48.878;9.394;2023-04-29T15:35:09;19.00;99.90
10468;DHT22;5281;48.878;9.394;2023-04-29T15:37:36;18.80;99.90
10468;DHT22;5281;48.878;9.394;2023-04-29T15:40:04;18.60;99.90
10468;DHT22;5281;48.878;9.394;2023-04-29T15:42:30;18.40;99.90
10468;DHT22;5281;48.878;9.394;2023-04-29T15:44:57;18.40;99.90
10468;DHT22;5281;48.878;9.394;2023-04-29T15:47:25;18.40;99.90
10468;DHT22;5281;48.878;9.394;2023-04-29T15:49:52;18.50;99.90